Time;durP1;ratioP1;P1;durP2;ratioP2;P2;SDS_P1;SDS_P2;PMS_P1;PMS_P2;Temp;Humidity;BMP_temperature;BMP_pressure;BME280_temperature;BME280_humidity;BME280_pressure;Samples;Min_cycle;Max_cycle;Signal;HPM_P1;HPM_P2
2022/10/07 00:01:28;;;;;;;10.83;6.30;;;11.60;99.90;;;;;;5034620;28;20464;-50
2022/10/07 00:03:55;;;;;;;8.77;6.13;;;11.40;99.90;;;;;;5034914;28;20931;-50
2022/10/07 00:06:22;;;;;;;13.60;7.90;;;11.70;99.90;;;;;;5034500;28;20433;-50
2022/10/07 00:08:51;;;;;;;9.83;6.77;;;10.80;99.90;;;;;;5016447;28;20964;-51
2022/10/07 00:11:20;;;;;;;10.13;7.00;;;11.30;99.90;;;;;;5034477;28;20457;-50
2022/10/07 00:13:49;;;;;;;10.70;7.67;;;11.50;99.90;;;;;;5034448;28;20950;-50
2022/10/07 00:16:18;;;;;;;15.07;6.10;;;11.30;99.90;;;;;;5034354;28;20441;-51
2022/10/07 00:18:45;;;;;;;10.83;5.67;;;11.30;99.90;;;;;;5034040;28;20992;-49
2022/10/07 00:21:14;;;;;;;13.13;6.40;;;11.10;99.90;;;;;;5034240;28;20547;-51
2022/10/07 00:23:42;;;;;;;9.53;6.63;;;11.10;99.90;;;;;;5034361;28;20447;-51
2022/10/07 00:26:11;;;;;;;10.13;6.30;;;11.10;99.90;;;;;;5034554;28;20454;-50
2022/10/07 00:28:39;;;;;;;11.73;6.50;;;11.20;99.90;;;;;;5033839;28;20438;-50
2022/10/07 00:31:08;;;;;;;8.73;6.43;;;11.00;99.90;;;;;;5034102;28;20471;-50
2022/10/07 00:33:36;;;;;;;11.33;6.93;;;11.00;99.90;;;;;;5016140;28;20475;-50
2022/10/07 00:36:07;;;;;;;14.90;7.73;;;11.60;99.90;;;;;;5034089;28;20434;-51
2022/10/07 00:38:33;;;;;;;12.67;6.80;;;10.90;99.90;;;;;;5015884;28;20523;-51
2022/10/07 00:41:00;;;;;;;21.53;9.50;;;11.50;99.90;;;;;;5016031;28;20477;-50
2022/10/07 00:43:28;;;;;;;11.90;7.27;;;11.10;99.90;;;;;;5016064;28;20445;-51
2022/10/07 00:46:00;;;;;;;9.67;5.57;;;11.00;99.90;;;;;;5032641;28;20435;-51
2022/10/07 00:48:30;;;;;;;10.40;6.70;;;10.90;99.90;;;;;;5015763;28;20469;-51
2022/10/07 00:51:00;;;;;;;18.50;7.00;;;10.70;99.90;;;;;;5016047;28;20992;-51
2022/10/07 00:53:29;;;;;;;10.40;6.27;;;10.90;99.90;;;;;;5033883;28;20440;-49
2022/10/07 00:56:00;;;;;;;14.67;6.63;;;11.50;99.90;;;;;;5033696;28;20807;-51
2022/10/07 00:58:28;;;;;;;9.00;5.60;;;10.40;99.90;;;;;;5033235;28;20480;-51
2022/10/07 01:00:54;;;;;;;7.70;5.40;;;11.10;99.90;;;;;;5015758;28;20473;-51
2022/10/07 01:03:23;;;;;;;8.20;5.83;;;11.10;99.90;;;;;;5033319;28;20437;-50
2022/10/07 01:05:49;;;;;;;9.10;5.80;;;11.10;99.90;;;;;;5033834;28;20495;-50
2022/10/07 01:08:16;;;;;;;9.87;6.90;;;10.90;99.90;;;;;;5033497;28;20461;-51
2022/10/07 01:10:53;;;;;;;8.87;6.00;;;10.60;99.90;;;;;;5033040;28;20449;-50
2022/10/07 01:13:28;;;;;;;10.00;6.07;;;10.40;99.90;;;;;;5015647;28;20462;-50
2022/10/07 01:16:04;;;;;;;12.50;6.80;;;10.80;99.90;;;;;;5033330;28;20947;-50
2022/10/07 01:18:38;;;;;;;8.57;5.50;;;11.30;99.90;;;;;;5032874;28;20788;-51
2022/10/07 01:21:08;;;;;;;12.07;5.53;;;11.30;99.90;;;;;;5033643;28;20987;-51
2022/10/07 01:23:53;;;;;;;9.63;5.57;;;11.30;99.90;;;;;;5015698;28;20777;-50
2022/10/07 01:26:51;;;;;;;7.80;5.43;;;11.00;99.90;;;;;;5015581;28;20973;-50
2022/10/07 01:29:22;;;;;;;11.90;6.33;;;10.70;99.90;;;;;;5010723;28;20786;-52
2022/10/07 01:31:56;;;;;;;11.70;5.30;;;10.80;99.90;;;;;;5015087;28;20489;-50
2022/10/07 01:34:25;;;;;;;7.97;5.60;;;10.80;99.90;;;;;;5033134;28;20432;-50
2022/10/07 01:36:55;;;;;;;6.57;4.90;;;11.00;99.90;;;;;;5033147;28;20438;-50
2022/10/07 01:39:26;;;;;;;9.60;5.40;;;10.90;99.90;;;;;;5015108;28;20570;-50
2022/10/07 01:41:54;;;;;;;14.30;5.70;;;11.20;99.90;;;;;;5014944;28;20471;-50
2022/10/07 01:44:21;;;;;;;10.07;6.50;;;11.10;99.90;;;;;;5032801;28;20951;-51
2022/10/07 01:46:49;;;;;;;10.67;6.57;;;11.00;99.90;;;;;;5014992;28;20453;-51
2022/10/07 01:49:16;;;;;;;8.37;5.40;;;11.10;99.90;;;;;;5015036;28;20452;-51
2022/10/07 01:51:54;;;;;;;8.97;5.50;;;10.90;99.90;;;;;;5032751;28;20527;-51
2022/10/07 01:54:35;;;;;;;10.37;6.30;;;11.40;99.90;;;;;;5014972;28;20455;-51
2022/10/07 01:57:13;;;;;;;13.80;6.33;;;11.30;99.90;;;;;;5014617;28;20436;-52
2022/10/07 02:00:04;;;;;;;10.60;6.77;;;10.70;99.90;;;;;;5014581;28;20548;-51
2022/10/07 02:02:58;;;;;;;9.43;5.63;;;10.80;99.90;;;;;;5032609;28;20488;-51
2022/10/07 02:05:36;;;;;;;9.60;5.50;;;10.60;99.90;;;;;;5032598;28;20431;-51
2022/10/07 02:08:19;;;;;;;11.13;7.10;;;10.60;99.90;;;;;;5032540;28;20916;-51
2022/10/07 02:10:58;;;;;;;13.57;6.23;;;10.50;99.90;;;;;;5032178;28;20567;-50
2022/10/07 02:13:34;;;;;;;18.73;7.43;;;10.50;99.90;;;;;;5032252;28;20434;-51
2022/10/07 02:16:06;;;;;;;10.73;6.10;;;11.20;99.90;;;;;;5014726;28;20452;-51
2022/10/07 02:18:35;;;;;;;13.60;6.40;;;10.50;99.90;;;;;;5014211;28;20502;-51
2022/10/07 02:21:06;;;;;;;12.10;6.47;;;10.40;99.90;;;;;;5032148;28;20460;-51
2022/10/07 02:23:35;;;;;;;16.13;7.23;;;10.60;99.90;;;;;;5014494;28;20463;-51
2022/10/07 02:26:05;;;;;;;10.77;6.17;;;10.80;99.90;;;;;;5014416;28;20484;-51
2022/10/07 02:28:36;;;;;;;10.37;6.30;;;10.70;99.90;;;;;;5014026;28;20551;-51
2022/10/07 02:31:04;;;;;;;13.20;5.73;;;10.40;99.90;;;;;;5014191;28;20476;-51
2022/10/07 02:33:33;;;;;;;12.17;5.63;;;10.50;99.90;;;;;;5014611;28;20572;-51
2022/10/07 02:36:05;;;;;;;12.33;6.70;;;11.10;99.90;;;;;;5014275;28;20455;-51
2022/10/07 02:38:32;;;;;;;7.90;5.90;;;10.50;99.90;;;;;;5031715;28;20469;-51
2022/10/07 02:41:05;;;;;;;10.37;6.60;;;10.50;99.90;;;;;;5014294;28;20563;-51
2022/10/07 02:43:40;;;;;;;10.57;6.60;;;10.50;99.90;;;;;;5032096;28;20987;-51
2022/10/07 02:46:10;;;;;;;9.10;5.60;;;10.50;99.90;;;;;;5031873;28;20916;-51
2022/10/07 02:48:40;;;;;;;14.97;6.47;;;10.40;99.90;;;;;;5013906;28;20453;-51
2022/10/07 02:51:10;;;;;;;10.33;5.87;;;10.80;99.90;;;;;;5014114;28;20466;-51
2022/10/07 02:53:39;;;;;;;10.97;6.97;;;10.60;99.90;;;;;;5014236;28;20880;-51
2022/10/07 02:56:07;;;;;;;17.80;7.73;;;10.80;99.90;;;;;;5014158;28;20451;-51
2022/10/07 02:58:37;;;;;;;16.80;6.73;;;10.50;99.90;;;;;;5031433;28;20439;-51
2022/10/07 03:01:05;;;;;;;10.80;5.80;;;10.50;99.90;;;;;;5031527;28;20479;-52
2022/10/07 03:03:32;;;;;;;10.10;5.50;;;10.40;99.90;;;;;;5014028;28;20443;-52
2022/10/07 03:06:04;;;;;;;11.40;6.77;;;10.60;99.90;;;;;;5014074;28;20538;-51
2022/10/07 03:08:32;;;;;;;16.40;8.60;;;10.30;99.90;;;;;;5015141;28;20444;-51
2022/10/07 03:10:59;;;;;;;13.20;6.40;;;10.20;99.90;;;;;;5017909;28;20828;-51
2022/10/07 03:13:26;;;;;;;20.40;6.67;;;10.50;99.90;;;;;;5017949;28;20436;-51
2022/10/07 03:15:58;;;;;;;10.17;6.40;;;10.50;99.90;;;;;;5018031;28;20426;-52
2022/10/07 03:18:27;;;;;;;10.57;6.53;;;10.40;99.90;;;;;;5017407;28;20451;-51
2022/10/07 03:21:03;;;;;;;11.57;6.27;;;10.60;99.90;;;;;;5017662;28;20486;-51
2022/10/07 03:23:30;;;;;;;12.83;6.50;;;10.70;99.90;;;;;;5017877;28;20457;-51
2022/10/07 03:25:59;;;;;;;10.00;6.20;;;10.90;99.90;;;;;;5017485;28;20545;-51
2022/10/07 03:28:28;;;;;;;9.13;6.13;;;10.30;99.90;;;;;;5034795;28;20391;-51
2022/10/07 03:31:05;;;;;;;14.47;6.27;;;10.50;99.90;;;;;;5017526;28;20511;-51
2022/10/07 03:33:32;;;;;;;10.40;5.73;;;10.40;99.90;;;;;;5017632;28;21010;-51
2022/10/07 03:35:58;;;;;;;10.47;5.90;;;10.40;99.90;;;;;;5017485;28;20454;-51
2022/10/07 03:38:25;;;;;;;14.63;6.77;;;10.40;99.90;;;;;;5016939;28;20482;-51
2022/10/07 03:40:52;;;;;;;12.27;7.07;;;10.40;99.90;;;;;;5017299;28;21003;-50
2022/10/07 03:43:19;;;;;;;8.10;5.47;;;10.30;99.90;;;;;;5017361;28;20443;-51
2022/10/07 03:45:49;;;;;;;10.10;6.33;;;10.30;99.90;;;;;;5017197;28;20454;-52
2022/10/07 03:48:17;;;;;;;12.13;7.00;;;10.00;99.90;;;;;;5017317;28;20451;-51
2022/10/07 03:50:48;;;;;;;8.07;5.87;;;10.10;99.90;;;;;;5034957;28;20444;-51
2022/10/07 03:53:15;;;;;;;10.40;6.27;;;10.50;99.90;;;;;;5035362;28;20458;-51
2022/10/07 03:55:42;;;;;;;9.17;5.97;;;10.10;99.90;;;;;;5016926;28;20891;-51
2022/10/07 03:58:09;;;;;;;16.17;6.73;;;10.30;99.90;;;;;;5016933;28;20451;-50
2022/10/07 04:00:36;;;;;;;9.03;5.80;;;10.10;99.90;;;;;;5016408;28;20981;-51
2022/10/07 04:03:04;;;;;;;11.80;6.60;;;10.50;99.90;;;;;;5016923;28;20456;-51
2022/10/07 04:05:32;;;;;;;10.43;6.57;;;10.20;99.90;;;;;;5016874;28;20542;-51
2022/10/07 04:07:58;;;;;;;13.17;6.07;;;10.30;99.90;;;;;;5034570;28;20442;-50
2022/10/07 04:10:26;;;;;;;9.90;5.33;;;10.10;99.90;;;;;;5016377;28;20452;-52
2022/10/07 04:12:53;;;;;;;12.70;5.40;;;10.30;99.90;;;;;;5016961;28;20459;-51
2022/10/07 04:15:20;;;;;;;11.10;6.67;;;10.20;99.90;;;;;;5016830;28;20506;-51
2022/10/07 04:17:48;;;;;;;12.87;7.60;;;10.30;99.90;;;;;;5016526;28;20451;-51
2022/10/07 04:20:17;;;;;;;12.97;6.07;;;10.20;99.90;;;;;;5015949;28;20493;-52
2022/10/07 04:22:46;;;;;;;10.97;6.97;;;10.30;99.90;;;;;;5016393;28;20479;-50
2022/10/07 04:28:01;;;;;;;11.77;6.97;;;10.20;99.90;;;;;;5016659;28;20440;-49
2022/10/07 04:30:31;;;;;;;14.20;7.30;;;9.80;99.90;;;;;;5033659;28;20399;-51
2022/10/07 04:32:58;;;;;;;14.10;7.50;;;10.00;99.90;;;;;;5033213;23;20524;-46
2022/10/07 04:35:25;;;;;;;10.37;6.70;;;10.10;99.90;;;;;;5012488;28;20557;-47
2022/10/07 04:37:55;;;;;;;14.20;6.93;;;10.10;99.90;;;;;;5012178;28;20448;-47
2022/10/07 04:40:26;;;;;;;17.57;7.20;;;10.00;99.90;;;;;;5011960;28;20476;-47
2022/10/07 04:45:39;;;;;;;11.17;6.13;;;10.00;99.90;;;;;;5012328;28;20445;-47
2022/10/07 04:48:07;;;;;;;9.13;6.87;;;9.30;99.90;;;;;;5012341;28;20539;-48
2022/10/07 04:50:37;;;;;;;15.80;7.23;;;9.60;99.90;;;;;;5011749;28;20475;-49
2022/10/07 04:53:06;;;;;;;15.43;6.67;;;10.40;99.90;;;;;;5011829;28;20815;-46
2022/10/07 04:55:36;;;;;;;7.93;6.63;;;9.80;99.90;;;;;;5013336;28;20429;-47
2022/10/07 04:58:03;;;;;;;14.33;6.63;;;10.10;99.90;;;;;;5011764;28;20467;-46
2022/10/07 05:00:30;;;;;;;16.10;8.03;;;9.50;99.90;;;;;;5011399;28;20503;-47
2022/10/07 05:02:56;;;;;;;11.37;6.70;;;9.50;99.90;;;;;;5013243;28;20495;-47
2022/10/07 05:05:26;;;;;;;12.17;6.20;;;9.70;99.90;;;;;;5012026;28;20953;-46
2022/10/07 05:07:54;;;;;;;11.10;6.33;;;10.00;99.90;;;;;;5012522;28;20440;-47
2022/10/07 05:10:23;;;;;;;13.90;6.40;;;9.70;99.90;;;;;;5011566;28;20448;-47
2022/10/07 05:12:50;;;;;;;16.57;8.10;;;10.00;99.90;;;;;;5013091;28;20537;-47
2022/10/07 05:15:17;;;;;;;11.53;6.43;;;9.90;99.90;;;;;;5011596;28;20457;-47
2022/10/07 05:17:44;;;;;;;9.23;6.10;;;10.10;99.90;;;;;;5011412;28;20931;-48
2022/10/07 05:20:11;;;;;;;14.47;8.00;;;10.00;99.90;;;;;;5010987;28;20476;-48
2022/10/07 05:22:39;;;;;;;14.70;5.97;;;9.70;99.90;;;;;;5012296;28;20483;-47
2022/10/07 05:25:07;;;;;;;13.70;7.60;;;10.00;99.90;;;;;;5011307;28;20543;-46
2022/10/07 05:27:35;;;;;;;13.80;7.00;;;10.00;99.90;;;;;;5011173;28;20518;-47
2022/10/07 05:30:02;;;;;;;16.20;6.83;;;9.60;99.90;;;;;;5010874;28;20456;-46
2022/10/07 05:32:31;;;;;;;11.13;6.60;;;10.10;99.90;;;;;;5010041;28;20476;-49
2022/10/07 05:34:58;;;;;;;17.10;8.13;;;9.90;99.90;;;;;;5011713;28;20456;-48
2022/10/07 05:37:25;;;;;;;23.10;7.30;;;9.40;99.90;;;;;;5010621;28;20977;-48
2022/10/07 05:39:53;;;;;;;17.50;9.87;;;10.10;99.90;;;;;;5010556;28;20526;-48
2022/10/07 05:42:21;;;;;;;9.93;7.40;;;9.60;99.90;;;;;;5010908;28;20988;-48
2022/10/07 05:44:56;;;;;;;17.83;7.73;;;10.00;99.90;;;;;;5010425;28;20965;-47
2022/10/07 05:47:23;;;;;;;15.03;7.40;;;10.10;99.90;;;;;;5010067;28;20551;-47
2022/10/07 05:49:54;;;;;;;13.43;7.23;;;9.90;99.90;;;;;;5009952;28;20933;-47
2022/10/07 05:52:22;;;;;;;15.47;6.47;;;9.80;99.90;;;;;;5010226;28;20511;-47
2022/10/07 05:54:50;;;;;;;12.80;7.30;;;10.10;99.90;;;;;;5010634;28;20455;-47
2022/10/07 05:57:17;;;;;;;15.80;7.17;;;9.80;99.90;;;;;;5010337;28;20547;-48
2022/10/07 05:59:44;;;;;;;16.17;7.50;;;9.10;99.90;;;;;;5009839;28;20464;-46
2022/10/07 06:02:15;;;;;;;19.97;9.00;;;10.00;99.90;;;;;;5011523;28;20217;-46
2022/10/07 06:04:42;;;;;;;14.93;7.00;;;10.40;99.90;;;;;;5011061;28;20427;-47
2022/10/07 06:07:10;;;;;;;12.60;7.37;;;10.30;99.90;;;;;;5010486;28;20764;-47
2022/10/07 06:15:10;;;;;;;11.97;8.00;;;10.50;99.90;;;;;;5010224;28;20456;-48
2022/10/07 06:17:45;;;;;;;18.93;8.00;;;10.50;99.90;;;;;;5010631;28;20457;-48
2022/10/07 06:20:14;;;;;;;10.33;6.60;;;10.70;99.90;;;;;;5009972;28;20472;-49
2022/10/07 06:22:41;;;;;;;10.37;6.50;;;10.50;99.90;;;;;;5009994;28;20468;-48
2022/10/07 06:25:09;;;;;;;11.97;7.10;;;10.50;99.90;;;;;;5010548;28;20503;-48
2022/10/07 06:27:36;;;;;;;7.70;6.57;;;10.60;99.90;;;;;;5010577;28;20453;-47
2022/10/07 06:30:05;;;;;;;15.43;7.10;;;10.80;99.90;;;;;;5010386;28;20469;-47
2022/10/07 06:32:32;;;;;;;24.93;8.13;;;10.80;99.90;;;;;;5011637;28;20566;-46
2022/10/07 06:35:00;;;;;;;10.23;7.33;;;10.80;99.90;;;;;;5010250;28;20958;-48
2022/10/07 06:37:30;;;;;;;12.93;6.90;;;10.70;99.90;;;;;;5010382;28;20460;-47
2022/10/07 06:39:57;;;;;;;9.37;7.50;;;10.70;99.90;;;;;;5009757;28;20454;-48
2022/10/07 06:42:23;;;;;;;8.03;6.80;;;10.60;99.90;;;;;;5011515;28;20540;-48
2022/10/07 06:45:19;;;;;;;17.50;7.13;;;11.00;99.90;;;;;;5011192;28;20914;-47
2022/10/07 06:47:48;;;;;;;12.83;7.47;;;10.90;99.90;;;;;;5009692;28;20451;-47
2022/10/07 06:50:16;;;;;;;20.23;7.07;;;10.80;99.90;;;;;;5011106;28;20450;-48
2022/10/07 06:52:43;;;;;;;12.70;7.17;;;10.90;99.90;;;;;;5010208;28;20472;-47
2022/10/07 06:55:10;;;;;;;10.03;7.17;;;10.70;99.90;;;;;;5010478;28;20476;-47
2022/10/07 06:57:38;;;;;;;11.07;8.97;;;11.50;99.90;;;;;;5010828;28;20491;-47
2022/10/07 07:00:05;;;;;;;11.83;7.43;;;11.60;99.90;;;;;;5010688;28;20492;-47
2022/10/07 07:02:33;;;;;;;16.13;7.90;;;11.00;99.90;;;;;;5009689;28;20518;-47
2022/10/07 07:05:03;;;;;;;11.03;7.70;;;10.90;99.90;;;;;;5009489;28;20495;-48
2022/10/07 07:07:31;;;;;;;13.37;8.07;;;11.10;99.90;;;;;;5009301;28;20485;-47
2022/10/07 07:09:59;;;;;;;10.53;7.50;;;11.30;99.90;;;;;;5009282;28;20578;-48
2022/10/07 07:12:26;;;;;;;13.80;6.90;;;11.20;99.90;;;;;;5009987;28;20470;-46
2022/10/07 07:14:55;;;;;;;11.07;6.80;;;11.40;99.90;;;;;;5009926;28;20445;-48
2022/10/07 07:17:21;;;;;;;14.13;8.97;;;11.80;99.90;;;;;;5009867;28;20449;-46
2022/10/07 07:19:48;;;;;;;13.17;7.43;;;11.30;99.90;;;;;;5009576;28;20936;-48
2022/10/07 07:22:16;;;;;;;11.97;7.70;;;11.30;99.90;;;;;;5009913;28;20484;-47
2022/10/07 07:24:44;;;;;;;16.30;8.50;;;11.20;99.90;;;;;;5009979;28;20971;-47
2022/10/07 07:27:11;;;;;;;9.97;7.77;;;11.30;99.90;;;;;;5010256;28;20483;-45
2022/10/07 07:29:38;;;;;;;11.80;8.60;;;11.90;99.90;;;;;;5011790;28;20433;-47
2022/10/07 07:32:05;;;;;;;11.93;8.40;;;11.50;99.90;;;;;;5010453;28;20478;-47
2022/10/07 07:34:37;;;;;;;12.40;8.70;;;11.90;99.90;;;;;;5009793;28;20455;-45
2022/10/07 07:37:04;;;;;;;14.70;8.63;;;11.30;99.90;;;;;;5010031;28;20446;-46
2022/10/07 07:39:41;;;;;;;12.43;8.50;;;12.10;99.90;;;;;;5009956;28;20503;-48
2022/10/07 07:42:11;;;;;;;13.33;8.70;;;11.80;99.90;;;;;;5009740;28;20493;-46
2022/10/07 07:44:39;;;;;;;13.03;7.90;;;11.80;99.90;;;;;;5010081;28;20962;-48
2022/10/07 07:47:09;;;;;;;11.20;8.73;;;11.50;99.90;;;;;;5010741;28;20509;-47
2022/10/07 07:49:37;;;;;;;17.93;9.30;;;12.30;99.90;;;;;;5009528;28;20846;-47
2022/10/07 07:52:05;;;;;;;12.40;8.60;;;12.00;99.90;;;;;;5009296;28;20466;-47
2022/10/07 07:54:38;;;;;;;11.63;8.70;;;12.10;99.90;;;;;;5011325;28;20564;-47
2022/10/07 07:57:05;;;;;;;11.33;7.73;;;12.10;99.90;;;;;;5013286;28;20456;-48
2022/10/07 07:59:37;;;;;;;14.83;8.67;;;12.00;99.90;;;;;;5012807;28;20541;-51
2022/10/07 08:02:04;;;;;;;14.47;8.30;;;11.60;99.90;;;;;;5012547;28;20485;-46
2022/10/07 08:04:31;;;;;;;12.60;8.00;;;12.10;99.90;;;;;;5012760;28;20973;-47
2022/10/07 08:06:58;;;;;;;12.10;8.63;;;12.20;99.90;;;;;;5012449;28;20458;-48
2022/10/07 08:09:25;;;;;;;11.27;6.97;;;12.20;99.90;;;;;;5014121;28;20918;-47
2022/10/07 08:11:53;;;;;;;12.63;7.73;;;12.20;99.90;;;;;;5012492;28;20548;-47
2022/10/07 08:14:21;;;;;;;12.07;8.17;;;12.30;99.90;;;;;;5013910;28;20521;-48
2022/10/07 08:16:51;;;;;;;11.50;7.37;;;12.20;99.90;;;;;;5012384;28;20453;-48
2022/10/07 08:19:19;;;;;;;14.03;6.97;;;12.30;99.90;;;;;;5012543;28;20935;-47
2022/10/07 08:21:45;;;;;;;20.10;7.97;;;12.00;99.90;;;;;;5013708;28;20839;-48
2022/10/07 08:24:17;;;;;;;12.27;6.90;;;12.50;99.90;;;;;;5011766;28;20928;-47
2022/10/07 08:26:46;;;;;;;15.30;8.10;;;12.50;99.90;;;;;;5012603;28;20482;-47
2022/10/07 08:29:15;;;;;;;15.33;6.93;;;12.70;99.90;;;;;;5011686;28;20951;-47
2022/10/07 08:31:42;;;;;;;8.23;5.80;;;12.60;99.90;;;;;;5011672;28;20691;-47
2022/10/07 08:34:11;;;;;;;11.73;5.83;;;12.50;99.90;;;;;;5013303;28;20491;-49
2022/10/07 08:36:38;;;;;;;10.63;6.00;;;12.70;99.90;;;;;;5013844;28;20437;-47
2022/10/07 08:39:05;;;;;;;11.47;7.07;;;13.20;99.90;;;;;;5013490;28;20445;-47
2022/10/07 08:41:47;;;;;;;13.93;6.37;;;13.10;99.90;;;;;;5013083;28;20489;-47
2022/10/07 08:44:23;;;;;;;12.87;5.63;;;13.00;99.90;;;;;;5013423;28;20436;-47
2022/10/07 08:46:55;;;;;;;11.17;5.50;;;13.10;99.90;;;;;;5013410;28;20808;-48
2022/10/07 08:49:32;;;;;;;7.07;5.30;;;13.30;99.90;;;;;;5012999;28;20440;-48
2022/10/07 08:52:02;;;;;;;9.90;7.00;;;13.10;99.90;;;;;;5013382;28;20445;-48
2022/10/07 08:54:30;;;;;;;7.13;5.57;;;13.30;99.90;;;;;;5012739;28;20500;-47
2022/10/07 08:57:05;;;;;;;6.73;4.40;;;12.70;99.90;;;;;;5012712;28;20473;-47
2022/10/07 08:59:33;;;;;;;7.37;4.70;;;13.20;99.90;;;;;;5014915;28;20437;-48
2022/10/07 09:02:12;;;;;;;13.40;4.77;;;13.40;99.90;;;;;;5014736;28;20492;-48
2022/10/07 09:04:46;;;;;;;7.37;5.33;;;13.30;99.90;;;;;;5015364;28;20512;-46
2022/10/07 09:07:17;;;;;;;9.80;6.10;;;13.90;99.90;;;;;;5013955;28;20430;-47
2022/10/07 09:09:52;;;;;;;10.83;4.80;;;13.40;99.90;;;;;;5012668;28;20516;-47
2022/10/07 09:12:23;;;;;;;15.20;5.20;;;13.50;99.90;;;;;;5006244;28;20550;-47
2022/10/07 09:14:54;;;;;;;5.83;3.77;;;13.90;99.90;;;;;;4992877;28;20437;-47
2022/10/07 09:17:26;;;;;;;10.67;5.10;;;13.90;99.90;;;;;;4993287;28;20440;-48
2022/10/07 09:19:58;;;;;;;15.03;5.37;;;13.90;99.90;;;;;;4992630;28;20440;-47
2022/10/07 09:22:30;;;;;;;7.40;5.20;;;14.30;99.90;;;;;;4993018;28;20483;-47
2022/10/07 09:25:15;;;;;;;8.10;4.10;;;14.00;99.90;;;;;;4993162;28;20446;-47
2022/10/07 09:27:42;;;;;;;7.20;4.80;;;14.20;99.90;;;;;;4992702;28;20459;-48
2022/10/07 09:30:13;;;;;;;8.93;5.07;;;14.20;99.90;;;;;;5005096;28;20451;-48
2022/10/07 09:32:43;;;;;;;9.33;5.03;;;13.90;99.90;;;;;;5012207;28;20945;-47
2022/10/07 09:35:13;;;;;;;14.73;5.77;;;14.30;99.90;;;;;;5012353;28;21116;-47
2022/10/07 09:37:55;;;;;;;11.90;4.37;;;14.30;99.90;;;;;;5012873;28;20466;-47
2022/10/07 09:40:30;;;;;;;6.97;4.00;;;14.30;99.90;;;;;;5012396;28;20454;-48
2022/10/07 09:42:58;;;;;;;14.70;7.03;;;14.40;99.90;;;;;;5012015;28;20490;-48
2022/10/07 09:45:27;;;;;;;16.73;5.20;;;14.60;99.90;;;;;;5012622;28;20440;-48
2022/10/07 09:47:57;;;;;;;10.63;4.97;;;14.50;99.90;;;;;;5011988;28;20439;-47
2022/10/07 09:50:36;;;;;;;14.37;4.03;;;14.10;99.90;;;;;;5011231;28;20459;-47
2022/10/07 09:53:04;;;;;;;7.10;3.90;;;14.60;99.90;;;;;;5006738;28;20533;-47
2022/10/07 09:55:38;;;;;;;15.53;4.83;;;14.70;99.90;;;;;;4997577;28;20461;-49
2022/10/07 09:58:06;;;;;;;10.80;4.77;;;14.70;99.90;;;;;;5011632;28;20444;-47
2022/10/07 10:00:42;;;;;;;6.07;4.67;;;14.80;99.90;;;;;;5011642;28;20897;-47
2022/10/07 10:03:09;;;;;;;13.13;5.33;;;14.80;99.90;;;;;;5011827;28;20490;-47
2022/10/07 10:05:39;;;;;;;7.50;3.60;;;14.80;99.90;;;;;;5011717;28;20436;-48
2022/10/07 10:08:18;;;;;;;10.30;6.43;;;14.60;99.90;;;;;;5011389;28;20435;-47
2022/10/07 10:10:51;;;;;;;10.17;4.97;;;15.20;99.90;;;;;;5011771;28;20436;-47
2022/10/07 10:13:26;;;;;;;18.90;4.70;;;15.10;99.90;;;;;;5011868;28;20446;-48
2022/10/07 10:15:52;;;;;;;11.60;4.30;;;14.80;99.90;;;;;;5012084;28;20431;-47
2022/10/07 10:18:31;;;;;;;8.90;3.70;;;15.00;99.90;;;;;;5010570;28;20959;-47
2022/10/07 10:21:20;;;;;;;6.43;3.47;;;15.10;99.90;;;;;;5011185;28;20485;-47
2022/10/07 10:23:51;;;;;;;9.20;3.50;;;15.20;99.60;;;;;;5012150;28;20436;-46
2022/10/07 10:26:29;;;;;;;9.90;3.30;;;15.10;99.50;;;;;;5012611;28;20536;-48
2022/10/07 10:29:05;;;;;;;10.37;4.20;;;15.30;99.70;;;;;;5012402;28;20432;-47
2022/10/07 10:31:45;;;;;;;9.53;3.87;;;15.40;99.50;;;;;;5037447;23;21669;-51
2022/10/07 10:34:23;;;;;;;11.40;3.97;;;15.10;99.10;;;;;;5032015;28;20435;-52
2022/10/07 10:36:59;;;;;;;12.40;4.67;;;15.60;99.10;;;;;;5031572;28;20442;-51
2022/10/07 10:39:39;;;;;;;7.73;3.20;;;15.00;98.80;;;;;;5030804;28;20443;-51
2022/10/07 10:42:11;;;;;;;7.27;3.90;;;15.40;99.00;;;;;;5031112;28;20995;-52
2022/10/07 10:44:50;;;;;;;5.70;3.53;;;15.60;98.80;;;;;;5030867;28;21044;-51
2022/10/07 10:47:22;;;;;;;4.70;2.73;;;15.50;98.30;;;;;;5021299;28;20464;-51
2022/10/07 10:50:03;;;;;;;10.50;3.63;;;15.60;98.10;;;;;;4993190;28;20540;-51
2022/10/07 10:52:45;;;;;;;12.87;4.90;;;15.80;98.10;;;;;;5011019;28;20555;-51
2022/10/07 10:55:22;;;;;;;4.90;3.13;;;15.70;97.70;;;;;;5017669;28;20798;-51
2022/10/07 10:57:58;;;;;;;7.47;3.33;;;15.80;97.60;;;;;;5031289;28;20436;-51
2022/10/07 11:00:26;;;;;;;5.30;3.40;;;15.80;97.70;;;;;;5030871;28;20426;-51
2022/10/07 11:03:11;;;;;;;8.50;4.70;;;15.80;97.80;;;;;;5030996;28;20490;-52
2022/10/07 11:05:41;;;;;;;10.73;3.50;;;15.90;97.60;;;;;;5030751;28;20443;-52
2022/10/07 11:08:16;;;;;;;8.43;3.27;;;15.90;97.60;;;;;;5030297;28;20515;-51
2022/10/07 11:10:49;;;;;;;8.60;3.23;;;16.00;97.00;;;;;;5031163;28;20524;-51
2022/10/07 11:13:26;;;;;;;14.47;4.50;;;16.00;96.50;;;;;;5030725;28;20831;-51
2022/10/07 11:15:57;;;;;;;7.23;3.30;;;16.10;96.60;;;;;;5030556;28;20455;-51
2022/10/07 11:18:32;;;;;;;6.50;3.20;;;16.20;96.70;;;;;;5030654;28;20430;-52
2022/10/07 11:21:00;;;;;;;7.83;3.07;;;16.20;96.40;;;;;;5030913;28;20442;-52
2022/10/07 11:23:41;;;;;;;6.80;3.80;;;16.20;96.20;;;;;;5028479;28;20883;-51
2022/10/07 11:26:14;;;;;;;6.63;2.83;;;16.50;96.10;;;;;;5011181;28;20995;-52
2022/10/07 11:28:44;;;;;;;5.63;2.37;;;16.20;96.20;;;;;;5014190;28;20883;-51
2022/10/07 11:31:17;;;;;;;6.73;2.90;;;16.30;96.40;;;;;;5019670;28;20448;-51
2022/10/07 11:33:48;;;;;;;5.30;2.50;;;16.30;96.40;;;;;;5014790;28;20451;-51
2022/10/07 11:36:19;;;;;;;7.37;2.70;;;16.30;96.40;;;;;;5015329;28;20436;-51
2022/10/07 11:38:50;;;;;;;8.50;3.40;;;16.20;96.40;;;;;;5014751;28;20446;-51
2022/10/07 11:41:23;;;;;;;9.80;3.20;;;16.30;96.10;;;;;;5015346;28;20437;-51
2022/10/07 11:43:54;;;;;;;7.33;3.10;;;16.40;96.00;;;;;;5014577;28;20506;-52
2022/10/07 11:46:24;;;;;;;8.10;2.57;;;16.00;95.30;;;;;;5022965;28;20443;-52
2022/10/07 11:48:59;;;;;;;5.93;2.40;;;16.30;95.10;;;;;;5034416;28;20502;-51
2022/10/07 11:51:30;;;;;;;7.37;3.13;;;16.20;94.90;;;;;;5034009;28;20551;-51
2022/10/07 11:54:02;;;;;;;9.77;3.57;;;16.10;94.60;;;;;;5034438;28;20471;-52
2022/10/07 11:56:38;;;;;;;8.60;2.90;;;16.40;94.60;;;;;;5035346;28;20442;-51
2022/10/07 11:59:06;;;;;;;4.73;2.10;;;16.60;93.90;;;;;;5033229;28;20449;-51
2022/10/07 12:01:46;;;;;;;5.07;2.33;;;16.60;94.10;;;;;;5033863;28;20448;-51
2022/10/07 12:04:23;;;;;;;5.33;2.70;;;16.60;93.70;;;;;;5034043;28;20441;-51
2022/10/07 12:07:27;;;;;;;10.03;2.83;;;16.80;93.60;;;;;;5034044;28;20871;-51
2022/10/07 12:10:17;;;;;;;5.03;2.77;;;16.60;93.50;;;;;;5033898;28;20439;-49
2022/10/07 12:12:48;;;;;;;5.60;2.37;;;16.70;93.40;;;;;;5033674;28;20461;-50
2022/10/07 12:15:37;;;;;;;7.00;3.60;;;16.80;93.70;;;;;;5034145;28;20438;-50
2022/10/07 12:18:27;;;;;;;6.93;3.00;;;16.70;93.80;;;;;;5016383;28;20835;-50
2022/10/07 12:21:00;;;;;;;9.60;3.60;;;16.70;93.80;;;;;;5016156;28;20463;-50
2022/10/07 12:23:48;;;;;;;4.47;2.73;;;16.70;93.80;;;;;;5033606;28;21026;-50
2022/10/07 12:26:53;;;;;;;6.30;2.67;;;17.30;93.50;;;;;;5015918;28;20899;-50
2022/10/07 12:29:27;;;;;;;9.23;2.70;;;16.80;93.00;;;;;;5024489;28;20475;-50
2022/10/07 12:31:54;;;;;;;6.13;2.60;;;16.70;93.20;;;;;;5033868;28;20468;-50
2022/10/07 12:34:26;;;;;;;6.83;2.97;;;16.30;93.10;;;;;;5033769;28;20445;-51
2022/10/07 12:36:53;;;;;;;4.33;2.30;;;16.60;93.00;;;;;;5033750;28;20428;-50
2022/10/07 12:39:35;;;;;;;4.57;2.13;;;16.50;92.60;;;;;;5032791;28;20457;-50
2022/10/07 12:42:07;;;;;;;5.03;2.27;;;16.90;92.10;;;;;;5033163;28;20969;-52
2022/10/07 12:44:39;;;;;;;5.07;2.30;;;16.80;91.50;;;;;;5033551;28;20434;-49
2022/10/07 12:47:14;;;;;;;6.13;2.73;;;16.90;91.20;;;;;;5030801;28;20472;-51
2022/10/07 12:49:47;;;;;;;4.43;2.77;;;16.90;91.60;;;;;;5032734;28;20444;-51
2022/10/07 12:52:22;;;;;;;7.50;2.60;;;16.90;91.50;;;;;;5034050;28;20581;-51
2022/10/07 12:54:52;;;;;;;7.73;3.10;;;16.90;91.60;;;;;;5033505;28;20433;-51
2022/10/07 12:57:22;;;;;;;9.00;2.90;;;17.00;91.80;;;;;;5019910;28;20503;-52
2022/10/07 13:00:00;;;;;;;5.67;3.10;;;16.70;91.80;;;;;;5033299;28;20461;-51
2022/10/07 13:03:02;;;;;;;7.73;3.57;;;16.80;91.50;;;;;;5024337;28;20564;-51
2022/10/07 13:05:55;;;;;;;5.40;2.70;;;16.90;91.00;;;;;;5012998;28;20445;-51
2022/10/07 13:08:48;;;;;;;5.20;2.63;;;16.90;90.50;;;;;;5013124;28;20434;-50
2022/10/07 13:11:54;;;;;;;6.73;4.20;;;17.00;90.60;;;;;;5021021;28;20444;-51
2022/10/07 13:14:28;;;;;;;10.43;3.00;;;17.20;90.70;;;;;;4982779;28;20456;-51